sensor_id;sensor_type;location;lat;lon;timestamp;temperature;humidity
30399;DHT22;17195;50.838;7.214;2023-07-22T00:02:15;11.70;99.90
30399;DHT22;17195;50.838;7.214;2023-07-22T00:04:40;11.60;99.90
30399;DHT22;17195;50.838;7.214;2023-07-22T00:07:06;11.50;99.90
30399;DHT22;17195;50.838;7.214;2023-07-22T00:09:34;11.50;99.90
30399;DHT22;17195;50.838;7.214;2023-07-22T00:12:00;11.50;99.90
30399;DHT22;17195;50.838;7.214;2023-07-22T00:14:26;11.40;99.90
30399;DHT22;17195;50.838;7.214;2023-07-22T00:16:51;11.40;99.90
30399;DHT22;17195;50.838;7.214;2023-07-22T00:19:17;11.40;99.90
30399;DHT22;17195;50.838;7.214;2023-07-22T00:21:42;11.30;99.90
30399;DHT22;17195;50.838;7.214;2023-07-22T00:24:08;11.40;99.90
30399;DHT22;17195;50.838;7.214;2023-07-22T00:26:33;11.30;99.90
30399;DHT22;17195;50.838;7.214;2023-07-22T00:28:59;11.30;99.90
30399;DHT22;17195;50.838;7.214;2023-07-22T00:31:24;11.20;99.90
30399;DHT22;17195;50.838;7.214;2023-07-22T00:33:50;11.10;99.90
30399;DHT22;17195;50.838;7.214;2023-07-22T00:36:15;11.10;99.90
30399;DHT22;17195;50.838;7.214;2023-07-22T00:38:41;11.20;99.90
30399;DHT22;17195;50.838;7.214;2023-07-22T00:41:06;11.10;99.90
30399;DHT22;17195;50.838;7.214;2023-07-22T00:43:32;11.10;99.90
30399;DHT22;17195;50.838;7.214;2023-07-22T00:45:58;11.00;99.90
30399;DHT22;17195;50.838;7.214;2023-07-22T00:48:25;11.00;99.90
30399;DHT22;17195;50.838;7.214;2023-07-22T00:50:52;11.00;99.90
30399;DHT22;17195;50.838;7.214;2023-07-22T00:53:18;11.00;99.90
30399;DHT22;17195;50.838;7.214;2023-07-22T00:55:45;11.00;99.90
30399;DHT22;17195;50.838;7.214;2023-07-22T00:58:10;11.00;99.90
30399;DHT22;17195;50.838;7.214;2023-07-22T01:00:36;11.00;99.90
30399;DHT22;17195;50.838;7.214;2023-07-22T01:03:02;10.90;99.90
30399;DHT22;17195;50.838;7.214;2023-07-22T01:05:29;10.90;99.90
30399;DHT22;17195;50.838;7.214;2023-07-22T01:07:55;10.80;99.90
30399;DHT22;17195;50.838;7.214;2023-07-22T01:10:21;10.80;99.90
30399;DHT22;17195;50.838;7.214;2023-07-22T01:12:47;10.80;99.90
30399;DHT22;17195;50.838;7.214;2023-07-22T01:15:12;10.70;99.90
30399;DHT22;17195;50.838;7.214;2023-07-22T01:17:38;10.80;99.90
30399;DHT22;17195;50.838;7.214;2023-07-22T01:20:05;10.70;99.90
30399;DHT22;17195;50.838;7.214;2023-07-22T01:22:32;10.70;99.90
30399;DHT22;17195;50.838;7.214;2023-07-22T01:24:58;10.70;99.90
30399;DHT22;17195;50.838;7.214;2023-07-22T01:27:24;10.70;99.90
30399;DHT22;17195;50.838;7.214;2023-07-22T01:29:53;10.70;99.90
30399;DHT22;17195;50.838;7.214;2023-07-22T01:32:19;10.70;99.90
30399;DHT22;17195;50.838;7.214;2023-07-22T01:34:45;10.70;99.90
30399;DHT22;17195;50.838;7.214;2023-07-22T01:37:11;10.70;99.90
30399;DHT22;17195;50.838;7.214;2023-07-22T01:39:37;10.60;99.90
30399;DHT22;17195;50.838;7.214;2023-07-22T01:42:02;10.60;99.90
30399;DHT22;17195;50.838;7.214;2023-07-22T01:44:28;10.60;99.90
30399;DHT22;17195;50.838;7.214;2023-07-22T01:46:54;10.60;99.90
30399;DHT22;17195;50.838;7.214;2023-07-22T01:49:19;10.70;99.90
30399;DHT22;17195;50.838;7.214;2023-07-22T01:51:45;10.60;99.90
30399;DHT22;17195;50.838;7.214;2023-07-22T01:54:11;10.60;99.90
30399;DHT22;17195;50.838;7.214;2023-07-22T01:56:38;10.50;99.90
30399;DHT22;17195;50.838;7.214;2023-07-22T01:59:05;10.60;99.90
30399;DHT22;17195;50.838;7.214;2023-07-22T02:01:31;10.50;99.90
30399;DHT22;17195;50.838;7.214;2023-07-22T02:03:57;10.60;99.90
30399;DHT22;17195;50.838;7.214;2023-07-22T02:06:23;10.60;99.90
30399;DHT22;17195;50.838;7.214;2023-07-22T02:08:48;10.60;99.90
30399;DHT22;17195;50.838;7.214;2023-07-22T02:11:14;10.70;99.90
30399;DHT22;17195;50.838;7.214;2023-07-22T02:13:40;10.70;99.90
30399;DHT22;17195;50.838;7.214;2023-07-22T02:16:05;10.70;99.90
30399;DHT22;17195;50.838;7.214;2023-07-22T02:18:31;10.60;99.90
30399;DHT22;17195;50.838;7.214;2023-07-22T02:20:57;10.60;99.90
30399;DHT22;17195;50.838;7.214;2023-07-22T02:23:23;10.60;99.90
30399;DHT22;17195;50.838;7.214;2023-07-22T02:25:53;10.70;99.90
30399;DHT22;17195;50.838;7.214;2023-07-22T02:28:20;10.70;99.90
30399;DHT22;17195;50.838;7.214;2023-07-22T02:30:47;10.70;99.90
30399;DHT22;17195;50.838;7.214;2023-07-22T02:33:13;10.70;99.90
30399;DHT22;17195;50.838;7.214;2023-07-22T02:35:41;10.80;99.90
30399;DHT22;17195;50.838;7.214;2023-07-22T02:38:06;10.80;99.90
30399;DHT22;17195;50.838;7.214;2023-07-22T02:40:35;10.90;99.90
30399;DHT22;17195;50.838;7.214;2023-07-22T02:43:00;11.00;99.90
30399;DHT22;17195;50.838;7.214;2023-07-22T02:45:26;11.00;99.90
30399;DHT22;17195;50.838;7.214;2023-07-22T02:47:52;11.10;99.90
30399;DHT22;17195;50.838;7.214;2023-07-22T02:50:18;11.10;99.90
30399;DHT22;17195;50.838;7.214;2023-07-22T02:52:43;11.20;99.90
30399;DHT22;17195;50.838;7.214;2023-07-22T02:55:16;11.20;99.90
30399;DHT22;17195;50.838;7.214;2023-07-22T02:57:46;11.20;99.90
30399;DHT22;17195;50.838;7.214;2023-07-22T03:00:13;11.30;99.90
30399;DHT22;17195;50.838;7.214;2023-07-22T03:02:42;11.30;99.90
30399;DHT22;17195;50.838;7.214;2023-07-22T03:05:08;11.30;99.90
30399;DHT22;17195;50.838;7.214;2023-07-22T03:07:35;11.20;99.90
30399;DHT22;17195;50.838;7.214;2023-07-22T03:10:02;11.20;99.90
30399;DHT22;17195;50.838;7.214;2023-07-22T03:12:27;11.10;99.90
30399;DHT22;17195;50.838;7.214;2023-07-22T03:14:53;11.10;99.90
30399;DHT22;17195;50.838;7.214;2023-07-22T03:17:19;11.10;99.90
30399;DHT22;17195;50.838;7.214;2023-07-22T03:19:45;11.10;99.90
30399;DHT22;17195;50.838;7.214;2023-07-22T03:22:13;11.00;99.90
30399;DHT22;17195;50.838;7.214;2023-07-22T03:24:39;11.00;99.90
30399;DHT22;17195;50.838;7.214;2023-07-22T03:27:05;11.00;99.90
30399;DHT22;17195;50.838;7.214;2023-07-22T03:29:32;11.00;99.90
30399;DHT22;17195;50.838;7.214;2023-07-22T03:31:57;11.10;99.90
30399;DHT22;17195;50.838;7.214;2023-07-22T03:34:23;11.10;99.90
30399;DHT22;17195;50.838;7.214;2023-07-22T03:36:48;11.10;99.90
30399;DHT22;17195;50.838;7.214;2023-07-22T03:39:14;11.10;99.90
30399;DHT22;17195;50.838;7.214;2023-07-22T03:41:40;11.20;99.90
30399;DHT22;17195;50.838;7.214;2023-07-22T03:44:05;11.30;99.90
30399;DHT22;17195;50.838;7.214;2023-07-22T03:46:31;11.30;99.90
30399;DHT22;17195;50.838;7.214;2023-07-22T03:48:57;11.30;99.90
30399;DHT22;17195;50.838;7.214;2023-07-22T03:51:22;11.40;99.90
30399;DHT22;17195;50.838;7.214;2023-07-22T03:53:48;11.30;99.90
30399;DHT22;17195;50.838;7.214;2023-07-22T03:56:13;11.30;99.90
30399;DHT22;17195;50.838;7.214;2023-07-22T03:58:39;11.40;99.90
30399;DHT22;17195;50.838;7.214;2023-07-22T04:01:04;11.40;99.90
30399;DHT22;17195;50.838;7.214;2023-07-22T04:03:30;11.50;99.90
30399;DHT22;17195;50.838;7.214;2023-07-22T04:05:56;11.50;99.90
30399;DHT22;17195;50.838;7.214;2023-07-22T04:08:22;11.50;99.90
30399;DHT22;17195;50.838;7.214;2023-07-22T04:10:52;11.50;99.90
30399;DHT22;17195;50.838;7.214;2023-07-22T04:13:17;11.50;99.90
30399;DHT22;17195;50.838;7.214;2023-07-22T04:15:43;11.50;99.90
30399;DHT22;17195;50.838;7.214;2023-07-22T04:18:08;11.50;99.90
30399;DHT22;17195;50.838;7.214;2023-07-22T04:20:34;11.40;99.90
30399;DHT22;17195;50.838;7.214;2023-07-22T04:22:59;11.40;99.90
30399;DHT22;17195;50.838;7.214;2023-07-22T04:25:25;11.40;99.90
30399;DHT22;17195;50.838;7.214;2023-07-22T04:27:50;11.40;99.90
30399;DHT22;17195;50.838;7.214;2023-07-22T04:30:16;11.40;99.90
30399;DHT22;17195;50.838;7.214;2023-07-22T04:32:49;11.40;99.90
30399;DHT22;17195;50.838;7.214;2023-07-22T04:35:15;11.40;99.90
30399;DHT22;17195;50.838;7.214;2023-07-22T04:37:43;11.50;99.90
30399;DHT22;17195;50.838;7.214;2023-07-22T04:40:10;11.50;99.90
30399;DHT22;17195;50.838;7.214;2023-07-22T04:42:42;11.60;99.90
30399;DHT22;17195;50.838;7.214;2023-07-22T04:45:09;11.60;99.90
30399;DHT22;17195;50.838;7.214;2023-07-22T04:47:35;11.70;99.90
30399;DHT22;17195;50.838;7.214;2023-07-22T04:50:02;11.80;99.90
30399;DHT22;17195;50.838;7.214;2023-07-22T04:52:27;11.90;99.90
30399;DHT22;17195;50.838;7.214;2023-07-22T04:54:53;11.90;99.90
30399;DHT22;17195;50.838;7.214;2023-07-22T04:57:20;12.00;99.90
30399;DHT22;17195;50.838;7.214;2023-07-22T04:59:46;12.10;99.90
30399;DHT22;17195;50.838;7.214;2023-07-22T05:02:12;12.10;99.90
30399;DHT22;17195;50.838;7.214;2023-07-22T05:04:37;12.10;99.90
30399;DHT22;17195;50.838;7.214;2023-07-22T05:07:03;12.20;99.90
30399;DHT22;17195;50.838;7.214;2023-07-22T05:09:29;12.30;99.90
30399;DHT22;17195;50.838;7.214;2023-07-22T05:11:55;12.50;99.90
30399;DHT22;17195;50.838;7.214;2023-07-22T05:14:20;12.60;99.90
30399;DHT22;17195;50.838;7.214;2023-07-22T05:16:46;12.70;99.90
30399;DHT22;17195;50.838;7.214;2023-07-22T05:19:11;12.70;99.90
30399;DHT22;17195;50.838;7.214;2023-07-22T05:21:37;12.90;99.90
30399;DHT22;17195;50.838;7.214;2023-07-22T05:24:02;13.00;99.90
30399;DHT22;17195;50.838;7.214;2023-07-22T05:26:28;13.10;99.90
30399;DHT22;17195;50.838;7.214;2023-07-22T05:28:54;13.00;99.90
30399;DHT22;17195;50.838;7.214;2023-07-22T05:31:19;13.10;99.90
30399;DHT22;17195;50.838;7.214;2023-07-22T05:33:45;13.20;99.90
30399;DHT22;17195;50.838;7.214;2023-07-22T05:36:10;13.30;99.90
30399;DHT22;17195;50.838;7.214;2023-07-22T05:38:36;13.40;99.90
30399;DHT22;17195;50.838;7.214;2023-07-22T05:41:01;13.50;99.90
30399;DHT22;17195;50.838;7.214;2023-07-22T05:43:27;13.50;99.90
30399;DHT22;17195;50.838;7.214;2023-07-22T05:45:53;13.60;99.90
30399;DHT22;17195;50.838;7.214;2023-07-22T05:48:18;13.60;99.90
30399;DHT22;17195;50.838;7.214;2023-07-22T05:50:44;13.60;99.90
30399;DHT22;17195;50.838;7.214;2023-07-22T05:53:09;13.70;99.90
30399;DHT22;17195;50.838;7.214;2023-07-22T05:55:35;13.80;99.90
30399;DHT22;17195;50.838;7.214;2023-07-22T05:58:02;14.00;99.90
30399;DHT22;17195;50.838;7.214;2023-07-22T06:00:32;14.20;99.90
30399;DHT22;17195;50.838;7.214;2023-07-22T06:02:58;14.40;99.90
30399;DHT22;17195;50.838;7.214;2023-07-22T06:05:23;14.70;99.90
30399;DHT22;17195;50.838;7.214;2023-07-22T06:07:49;15.00;99.90
30399;DHT22;17195;50.838;7.214;2023-07-22T06:10:14;15.20;99.90
30399;DHT22;17195;50.838;7.214;2023-07-22T06:12:40;15.30;99.90
30399;DHT22;17195;50.838;7.214;2023-07-22T06:15:07;15.50;99.90
30399;DHT22;17195;50.838;7.214;2023-07-22T06:17:33;15.60;99.90
30399;DHT22;17195;50.838;7.214;2023-07-22T06:19:58;15.70;99.90
30399;DHT22;17195;50.838;7.214;2023-07-22T06:22:24;15.70;99.90
30399;DHT22;17195;50.838;7.214;2023-07-22T06:24:49;15.80;99.90
30399;DHT22;17195;50.838;7.214;2023-07-22T06:27:15;15.90;99.90
30399;DHT22;17195;50.838;7.214;2023-07-22T06:29:41;16.10;99.90
30399;DHT22;17195;50.838;7.214;2023-07-22T06:32:07;16.30;99.90
30399;DHT22;17195;50.838;7.214;2023-07-22T06:34:32;16.40;99.90
30399;DHT22;17195;50.838;7.214;2023-07-22T06:36:58;16.70;99.90
30399;DHT22;17195;50.838;7.214;2023-07-22T06:39:23;16.90;99.90
30399;DHT22;17195;50.838;7.214;2023-07-22T06:41:49;17.00;99.90
30399;DHT22;17195;50.838;7.214;2023-07-22T06:44:14;17.00;99.90
30399;DHT22;17195;50.838;7.214;2023-07-22T06:46:40;17.10;99.90
30399;DHT22;17195;50.838;7.214;2023-07-22T06:49:06;17.00;99.90
30399;DHT22;17195;50.838;7.214;2023-07-22T06:51:32;17.00;99.90
30399;DHT22;17195;50.838;7.214;2023-07-22T06:53:57;17.00;99.90
30399;DHT22;17195;50.838;7.214;2023-07-22T06:56:23;17.20;99.90
30399;DHT22;17195;50.838;7.214;2023-07-22T06:58:48;17.30;99.90
30399;DHT22;17195;50.838;7.214;2023-07-22T07:01:14;17.30;99.90
30399;DHT22;17195;50.838;7.214;2023-07-22T07:03:39;17.50;99.90
30399;DHT22;17195;50.838;7.214;2023-07-22T07:06:05;17.60;99.90
30399;DHT22;17195;50.838;7.214;2023-07-22T07:08:31;17.70;99.90
30399;DHT22;17195;50.838;7.214;2023-07-22T07:10:59;17.90;99.90
30399;DHT22;17195;50.838;7.214;2023-07-22T07:13:25;18.10;99.90
30399;DHT22;17195;50.838;7.214;2023-07-22T07:15:51;18.40;99.90
30399;DHT22;17195;50.838;7.214;2023-07-22T07:18:16;18.60;99.90
30399;DHT22;17195;50.838;7.214;2023-07-22T07:20:43;18.60;99.90
30399;DHT22;17195;50.838;7.214;2023-07-22T07:23:09;18.70;99.90
30399;DHT22;17195;50.838;7.214;2023-07-22T07:25:34;18.80;99.90
30399;DHT22;17195;50.838;7.214;2023-07-22T07:28:00;19.00;99.90
30399;DHT22;17195;50.838;7.214;2023-07-22T07:30:25;19.30;99.90
30399;DHT22;17195;50.838;7.214;2023-07-22T07:32:51;19.40;99.90
30399;DHT22;17195;50.838;7.214;2023-07-22T07:35:16;19.60;99.90
30399;DHT22;17195;50.838;7.214;2023-07-22T07:37:42;19.80;99.90
30399;DHT22;17195;50.838;7.214;2023-07-22T07:40:08;19.90;99.90
30399;DHT22;17195;50.838;7.214;2023-07-22T07:42:34;20.00;99.90
30399;DHT22;17195;50.838;7.214;2023-07-22T07:44:59;20.20;99.90
30399;DHT22;17195;50.838;7.214;2023-07-22T07:47:25;20.20;99.90
30399;DHT22;17195;50.838;7.214;2023-07-22T07:49:50;20.30;99.90
30399;DHT22;17195;50.838;7.214;2023-07-22T07:52:16;20.30;99.90
30399;DHT22;17195;50.838;7.214;2023-07-22T07:54:42;20.40;99.90
30399;DHT22;17195;50.838;7.214;2023-07-22T07:57:07;20.40;99.90
30399;DHT22;17195;50.838;7.214;2023-07-22T07:59:33;20.40;99.90
30399;DHT22;17195;50.838;7.214;2023-07-22T08:01:58;20.40;99.90
30399;DHT22;17195;50.838;7.214;2023-07-22T08:04:24;20.40;99.90
30399;DHT22;17195;50.838;7.214;2023-07-22T08:06:49;20.30;99.90
30399;DHT22;17195;50.838;7.214;2023-07-22T08:09:15;20.30;99.90
30399;DHT22;17195;50.838;7.214;2023-07-22T08:11:44;20.10;99.90
30399;DHT22;17195;50.838;7.214;2023-07-22T08:14:10;20.10;99.90
30399;DHT22;17195;50.838;7.214;2023-07-22T08:16:35;20.10;99.90
30399;DHT22;17195;50.838;7.214;2023-07-22T08:19:01;20.20;99.90
30399;DHT22;17195;50.838;7.214;2023-07-22T08:21:26;20.30;99.90
30399;DHT22;17195;50.838;7.214;2023-07-22T08:23:52;20.30;99.90
30399;DHT22;17195;50.838;7.214;2023-07-22T08:26:17;20.40;99.90
30399;DHT22;17195;50.838;7.214;2023-07-22T08:28:46;20.50;99.90
30399;DHT22;17195;50.838;7.214;2023-07-22T08:31:12;20.60;99.90
30399;DHT22;17195;50.838;7.214;2023-07-22T08:33:38;20.60;99.90
30399;DHT22;17195;50.838;7.214;2023-07-22T08:36:03;20.70;99.90
30399;DHT22;17195;50.838;7.214;2023-07-22T08:38:30;20.80;99.90
30399;DHT22;17195;50.838;7.214;2023-07-22T08:40:56;21.00;99.90
30399;DHT22;17195;50.838;7.214;2023-07-22T08:43:25;21.30;99.90
30399;DHT22;17195;50.838;7.214;2023-07-22T08:45:53;21.60;99.90
30399;DHT22;17195;50.838;7.214;2023-07-22T08:48:21;21.80;99.50
30399;DHT22;17195;50.838;7.214;2023-07-22T08:53:17;22.10;99.10
30399;DHT22;17195;50.838;7.214;2023-07-22T08:55:46;22.20;98.70
30399;DHT22;17195;50.838;7.214;2023-07-22T08:58:13;22.40;98.20
30399;DHT22;17195;50.838;7.214;2023-07-22T09:00:40;22.30;97.90
30399;DHT22;17195;50.838;7.214;2023-07-22T09:03:06;22.50;97.80
30399;DHT22;17195;50.838;7.214;2023-07-22T09:05:33;22.40;96.80
30399;DHT22;17195;50.838;7.214;2023-07-22T09:08:01;22.40;97.00
30399;DHT22;17195;50.838;7.214;2023-07-22T09:10:27;22.40;96.90
30399;DHT22;17195;50.838;7.214;2023-07-22T09:12:53;22.50;96.80
30399;DHT22;17195;50.838;7.214;2023-07-22T09:15:20;22.60;97.00
30399;DHT22;17195;50.838;7.214;2023-07-22T09:17:47;22.70;96.70
30399;DHT22;17195;50.838;7.214;2023-07-22T09:20:13;22.70;96.50
30399;DHT22;17195;50.838;7.214;2023-07-22T09:22:46;22.80;96.60
30399;DHT22;17195;50.838;7.214;2023-07-22T09:25:23;23.00;95.60
30399;DHT22;17195;50.838;7.214;2023-07-22T09:27:51;23.00;94.80
30399;DHT22;17195;50.838;7.214;2023-07-22T09:30:27;23.10;93.50
30399;DHT22;17195;50.838;7.214;2023-07-22T09:33:01;23.30;93.80
30399;DHT22;17195;50.838;7.214;2023-07-22T09:35:34;23.40;93.10
30399;DHT22;17195;50.838;7.214;2023-07-22T09:38:07;23.60;93.10
30399;DHT22;17195;50.838;7.214;2023-07-22T09:40:33;23.70;93.10
30399;DHT22;17195;50.838;7.214;2023-07-22T09:43:01;23.80;93.20
30399;DHT22;17195;50.838;7.214;2023-07-22T09:45:30;23.80;92.10
30399;DHT22;17195;50.838;7.214;2023-07-22T09:47:56;24.00;92.20
30399;DHT22;17195;50.838;7.214;2023-07-22T09:50:23;24.10;91.60
30399;DHT22;17195;50.838;7.214;2023-07-22T09:52:54;24.20;91.60
30399;DHT22;17195;50.838;7.214;2023-07-22T09:55:24;24.40;90.60
30399;DHT22;17195;50.838;7.214;2023-07-22T09:57:53;24.20;90.20
30399;DHT22;17195;50.838;7.214;2023-07-22T10:00:19;24.10;90.20
30399;DHT22;17195;50.838;7.214;2023-07-22T10:02:47;24.00;89.30
30399;DHT22;17195;50.838;7.214;2023-07-22T10:05:15;23.80;88.40
30399;DHT22;17195;50.838;7.214;2023-07-22T10:08:01;23.70;88.50
30399;DHT22;17195;50.838;7.214;2023-07-22T10:10:34;23.50;88.80
30399;DHT22;17195;50.838;7.214;2023-07-22T10:13:00;23.20;88.20
30399;DHT22;17195;50.838;7.214;2023-07-22T10:15:32;23.10;87.80
30399;DHT22;17195;50.838;7.214;2023-07-22T10:18:02;23.10;86.70
30399;DHT22;17195;50.838;7.214;2023-07-22T10:20:28;23.20;86.70
30399;DHT22;17195;50.838;7.214;2023-07-22T10:22:55;23.30;86.50
30399;DHT22;17195;50.838;7.214;2023-07-22T10:25:21;23.30;86.50
30399;DHT22;17195;50.838;7.214;2023-07-22T10:27:48;23.40;85.10
30399;DHT22;17195;50.838;7.214;2023-07-22T10:30:16;23.40;83.90
30399;DHT22;17195;50.838;7.214;2023-07-22T10:32:52;23.50;83.00
30399;DHT22;17195;50.838;7.214;2023-07-22T10:37:56;23.70;80.10
30399;DHT22;17195;50.838;7.214;2023-07-22T10:40:26;23.70;80.50
30399;DHT22;17195;50.838;7.214;2023-07-22T10:42:58;23.80;80.60
30399;DHT22;17195;50.838;7.214;2023-07-22T10:45:29;23.90;80.80
30399;DHT22;17195;50.838;7.214;2023-07-22T10:48:11;23.70;80.80
30399;DHT22;17195;50.838;7.214;2023-07-22T10:50:48;23.70;80.50
30399;DHT22;17195;50.838;7.214;2023-07-22T11:01:33;24.40;76.70
30399;DHT22;17195;50.838;7.214;2023-07-22T11:04:22;24.70;77.30
30399;DHT22;17195;50.838;7.214;2023-07-22T11:06:56;24.80;74.10
30399;DHT22;17195;50.838;7.214;2023-07-22T11:12:07;25.30;72.80
30399;DHT22;17195;50.838;7.214;2023-07-22T11:17:00;26.00;70.20
30399;DHT22;17195;50.838;7.214;2023-07-22T11:19:33;26.50;68.90
30399;DHT22;17195;50.838;7.214;2023-07-22T11:22:00;26.90;65.70
30399;DHT22;17195;50.838;7.214;2023-07-22T11:24:26;27.10;64.00
30399;DHT22;17195;50.838;7.214;2023-07-22T11:26:53;26.70;62.60
30399;DHT22;17195;50.838;7.214;2023-07-22T11:29:19;26.50;61.00
30399;DHT22;17195;50.838;7.214;2023-07-22T11:31:46;26.30;61.30
30399;DHT22;17195;50.838;7.214;2023-07-22T11:34:13;26.40;60.30
30399;DHT22;17195;50.838;7.214;2023-07-22T11:36:39;26.50;59.90
30399;DHT22;17195;50.838;7.214;2023-07-22T11:39:10;26.50;60.20
30399;DHT22;17195;50.838;7.214;2023-07-22T11:41:37;26.50;59.10
30399;DHT22;17195;50.838;7.214;2023-07-22T11:44:04;26.40;57.80
30399;DHT22;17195;50.838;7.214;2023-07-22T11:47:01;26.00;55.60
30399;DHT22;17195;50.838;7.214;2023-07-22T11:49:39;25.70;57.60
30399;DHT22;17195;50.838;7.214;2023-07-22T11:52:24;25.80;58.60
30399;DHT22;17195;50.838;7.214;2023-07-22T11:54:50;25.90;58.80
30399;DHT22;17195;50.838;7.214;2023-07-22T11:57:21;26.00;58.30
30399;DHT22;17195;50.838;7.214;2023-07-22T11:59:53;26.00;60.00
30399;DHT22;17195;50.838;7.214;2023-07-22T12:02:22;26.00;59.70
30399;DHT22;17195;50.838;7.214;2023-07-22T12:05:06;26.10;57.60
30399;DHT22;17195;50.838;7.214;2023-07-22T12:07:33;26.30;57.10
30399;DHT22;17195;50.838;7.214;2023-07-22T12:10:01;26.70;54.70
30399;DHT22;17195;50.838;7.214;2023-07-22T12:12:41;27.10;52.50
30399;DHT22;17195;50.838;7.214;2023-07-22T12:15:21;27.60;52.00
30399;DHT22;17195;50.838;7.214;2023-07-22T12:17:47;27.70;51.00
30399;DHT22;17195;50.838;7.214;2023-07-22T12:20:14;27.50;49.40
30399;DHT22;17195;50.838;7.214;2023-07-22T12:22:41;27.50;49.10
30399;DHT22;17195;50.838;7.214;2023-07-22T12:25:08;27.70;49.60
30399;DHT22;17195;50.838;7.214;2023-07-22T12:27:34;28.00;49.70
30399;DHT22;17195;50.838;7.214;2023-07-22T12:30:02;28.00;48.90
30399;DHT22;17195;50.838;7.214;2023-07-22T12:32:31;27.90;47.70
30399;DHT22;17195;50.838;7.214;2023-07-22T12:34:57;27.60;48.80
30399;DHT22;17195;50.838;7.214;2023-07-22T12:37:22;27.40;48.60
30399;DHT22;17195;50.838;7.214;2023-07-22T12:39:51;27.40;50.00
30399;DHT22;17195;50.838;7.214;2023-07-22T12:42:17;27.40;49.00
30399;DHT22;17195;50.838;7.214;2023-07-22T12:44:42;27.40;50.10
30399;DHT22;17195;50.838;7.214;2023-07-22T12:47:08;27.40;47.60
30399;DHT22;17195;50.838;7.214;2023-07-22T12:49:33;27.00;48.40
30399;DHT22;17195;50.838;7.214;2023-07-22T12:51:59;26.80;48.80
30399;DHT22;17195;50.838;7.214;2023-07-22T12:54:29;26.70;49.40
30399;DHT22;17195;50.838;7.214;2023-07-22T12:56:56;26.90;48.70
30399;DHT22;17195;50.838;7.214;2023-07-22T12:59:22;27.20;48.40
30399;DHT22;17195;50.838;7.214;2023-07-22T13:01:47;27.20;48.30
30399;DHT22;17195;50.838;7.214;2023-07-22T13:04:13;27.20;47.70
30399;DHT22;17195;50.838;7.214;2023-07-22T13:06:38;27.20;48.10
30399;DHT22;17195;50.838;7.214;2023-07-22T13:09:04;26.90;48.00
30399;DHT22;17195;50.838;7.214;2023-07-22T13:11:29;26.70;48.40
30399;DHT22;17195;50.838;7.214;2023-07-22T13:13:55;27.10;49.10
30399;DHT22;17195;50.838;7.214;2023-07-22T13:16:20;27.40;48.20
30399;DHT22;17195;50.838;7.214;2023-07-22T13:18:46;27.20;47.70
30399;DHT22;17195;50.838;7.214;2023-07-22T13:21:11;27.20;48.40
30399;DHT22;17195;50.838;7.214;2023-07-22T13:23:37;27.30;48.00
30399;DHT22;17195;50.838;7.214;2023-07-22T13:26:03;27.30;47.90
30399;DHT22;17195;50.838;7.214;2023-07-22T13:28:28;27.10;47.70
30399;DHT22;17195;50.838;7.214;2023-07-22T13:30:54;27.30;47.50
30399;DHT22;17195;50.838;7.214;2023-07-22T13:33:19;27.50;47.70
30399;DHT22;17195;50.838;7.214;2023-07-22T13:35:45;27.70;46.70
30399;DHT22;17195;50.838;7.214;2023-07-22T13:38:10;27.80;46.70
30399;DHT22;17195;50.838;7.214;2023-07-22T13:40:36;27.80;47.20
30399;DHT22;17195;50.838;7.214;2023-07-22T13:43:02;27.50;46.70
30399;DHT22;17195;50.838;7.214;2023-07-22T13:45:27;27.30;46.60
30399;DHT22;17195;50.838;7.214;2023-07-22T13:47:53;27.30;46.90
30399;DHT22;17195;50.838;7.214;2023-07-22T13:50:18;27.50;46.30
30399;DHT22;17195;50.838;7.214;2023-07-22T13:52:44;27.50;46.70
30399;DHT22;17195;50.838;7.214;2023-07-22T13:55:10;27.00;46.40
30399;DHT22;17195;50.838;7.214;2023-07-22T13:57:36;26.80;46.60
30399;DHT22;17195;50.838;7.214;2023-07-22T14:00:02;26.80;47.60
30399;DHT22;17195;50.838;7.214;2023-07-22T14:02:32;27.00;47.20
30399;DHT22;17195;50.838;7.214;2023-07-22T14:04:57;27.40;47.10
30399;DHT22;17195;50.838;7.214;2023-07-22T14:07:23;27.90;46.20
30399;DHT22;17195;50.838;7.214;2023-07-22T14:09:48;28.30;45.90
30399;DHT22;17195;50.838;7.214;2023-07-22T14:12:14;28.50;44.80
30399;DHT22;17195;50.838;7.214;2023-07-22T14:14:40;28.80;44.20
30399;DHT22;17195;50.838;7.214;2023-07-22T14:17:05;29.00;44.20
30399;DHT22;17195;50.838;7.214;2023-07-22T14:19:31;29.20;44.30
30399;DHT22;17195;50.838;7.214;2023-07-22T14:21:57;29.00;44.00
30399;DHT22;17195;50.838;7.214;2023-07-22T14:24:22;28.90;44.40
30399;DHT22;17195;50.838;7.214;2023-07-22T14:26:48;29.10;44.30
30399;DHT22;17195;50.838;7.214;2023-07-22T14:29:13;29.20;43.70
30399;DHT22;17195;50.838;7.214;2023-07-22T14:31:41;29.30;43.50
30399;DHT22;17195;50.838;7.214;2023-07-22T14:34:07;29.10;44.00
30399;DHT22;17195;50.838;7.214;2023-07-22T14:36:32;29.00;43.50
30399;DHT22;17195;50.838;7.214;2023-07-22T14:38:58;29.10;43.90
30399;DHT22;17195;50.838;7.214;2023-07-22T14:41:23;29.00;44.40
30399;DHT22;17195;50.838;7.214;2023-07-22T14:43:49;29.20;43.20
30399;DHT22;17195;50.838;7.214;2023-07-22T14:46:15;29.00;43.00
30399;DHT22;17195;50.838;7.214;2023-07-22T14:48:40;29.00;42.70
30399;DHT22;17195;50.838;7.214;2023-07-22T14:51:07;29.20;43.10
30399;DHT22;17195;50.838;7.214;2023-07-22T14:53:33;29.50;43.20
30399;DHT22;17195;50.838;7.214;2023-07-22T14:55:59;29.70;42.00
30399;DHT22;17195;50.838;7.214;2023-07-22T14:58:25;29.80;41.80
30399;DHT22;17195;50.838;7.214;2023-07-22T15:00:50;30.20;41.70
30399;DHT22;17195;50.838;7.214;2023-07-22T15:03:16;30.60;40.00
30399;DHT22;17195;50.838;7.214;2023-07-22T15:05:42;30.90;40.30
30399;DHT22;17195;50.838;7.214;2023-07-22T15:08:07;31.40;39.70
30399;DHT22;17195;50.838;7.214;2023-07-22T15:10:33;32.00;39.90
30399;DHT22;17195;50.838;7.214;2023-07-22T15:12:59;32.80;38.70
30399;DHT22;17195;50.838;7.214;2023-07-22T15:15:24;33.50;38.20
30399;DHT22;17195;50.838;7.214;2023-07-22T15:17:50;33.20;37.10
30399;DHT22;17195;50.838;7.214;2023-07-22T15:20:16;33.20;37.30
30399;DHT22;17195;50.838;7.214;2023-07-22T15:22:41;32.90;38.00
30399;DHT22;17195;50.838;7.214;2023-07-22T15:25:07;33.50;37.40
30399;DHT22;17195;50.838;7.214;2023-07-22T15:27:33;35.00;36.50
30399;DHT22;17195;50.838;7.214;2023-07-22T15:29:58;36.00;34.90
30399;DHT22;17195;50.838;7.214;2023-07-22T15:32:24;37.00;34.00
30399;DHT22;17195;50.838;7.214;2023-07-22T15:34:49;38.40;32.10
30399;DHT22;17195;50.838;7.214;2023-07-22T15:37:15;36.60;32.80
30399;DHT22;17195;50.838;7.214;2023-07-22T15:39:40;37.30;31.80
30399;DHT22;17195;50.838;7.214;2023-07-22T15:42:06;35.90;32.90
30399;DHT22;17195;50.838;7.214;2023-07-22T15:44:32;35.20;33.50
30399;DHT22;17195;50.838;7.214;2023-07-22T15:46:58;34.20;33.60